CDT,Max TemperatureF,Mean TemperatureF,Min TemperatureF,Max Dew PointF,MeanDew PointF,Min DewpointF,Max Humidity, Mean Humidity, Min Humidity, Max Sea Level PressureIn, Mean Sea Level PressureIn, Min Sea Level PressureIn, Max VisibilityMiles, Mean VisibilityMiles, Min VisibilityMiles, Max Wind SpeedMPH, Mean Wind SpeedMPH, Max Gust SpeedMPH,PrecipitationIn, CloudCover, Events, WindDirDegrees
2012-4-1,51,44,37,39,38,36,100,77,58,29.89,29.79,29.75,10,8,3,10,5,,0.00,5,,124
2012-4-2,46,40,35,37,36,34,100,82,66,30.07,30.00,29.94,10,10,9,14,9,18,0.00,4,,80
2012-4-3,57,48,39,43,38,34,100,75,44,30.02,29.96,29.87,10,10,5,14,5,20,0.08,4,,15
2012-4-4,50,42,35,34,28,25,93,59,37,30.09,30.03,30.00,10,10,10,16,8,22,0.00,0,,50
2012-4-5,42,35,28,27,25,21,93,66,42,30.23,30.17,30.10,10,10,10,17,8,24,0.00,1,,60
2012-4-6,51,38,24,34,25,19,86,60,30,30.37,30.30,30.24,10,10,10,13,5,,0.00,0,,122
2012-4-7,55,40,26,37,29,21,100,62,32,30.28,30.19,30.04,10,10,9,16,4,21,0.00,1,,163
2012-4-8,57,48,39,45,27,18,87,48,23,30.11,30.05,29.99,10,10,7,21,8,30,0.00,2,,296
2012-4-9,53,43,33,30,22,16,81,46,26,30.01,29.92,29.85,10,10,10,21,8,28,0.00,5,,310
2012-4-10,44,38,32,21,19,18,60,49,36,30.12,30.03,29.97,10,10,10,20,9,25,0.00,6,,327
2012-4-11,44,37,30,34,27,18,93,64,52,30.30,30.24,30.12,10,10,10,13,8,17,0.00,3,,55
2012-4-12,48,36,26,36,31,27,100,78,53,30.26,30.22,30.19,10,9,0,14,4,17,0.00,1,,123
2012-4-13,53,40,26,37,32,25,100,70,41,30.22,30.13,29.93,10,9,2,16,5,22,0.00,2,,152
2012-4-14,73,62,50,50,44,34,87,61,33,29.93,29.81,29.72,10,10,7,17,10,24,0.00,3,,217
2012-4-15,64,55,46,61,51,45,100,92,82,29.74,29.61,29.42,10,4,0,17,7,26,0.08,5,,122
2012-4-16,64,47,30,61,40,18,94,72,52,30.19,29.61,29.31,10,10,3,25,14,38,0.09,7,,257
2012-4-17,42,35,28,30,24,18,81,66,53,30.40,30.32,30.20,10,10,10,17,9,24,0.00,4,,125
2012-4-18,64,48,32,48,38,28,93,70,40,30.29,29.99,29.81,10,10,6,22,9,31,0.10,5,,203
2012-4-19,44,40,32,37,33,30,100,80,65,30.09,30.02,29.95,10,9,2,16,8,20,0.45,5,,44
2012-4-20,46,39,32,37,30,21,100,74,42,30.08,29.96,29.86,10,9,2,18,12,28,0.22,6,,20
2012-4-21,46,37,28,32,26,19,93,64,37,30.11,30.07,30.05,10,10,10,15,7,,0.00,0,,66
2012-4-22,51,40,28,28,24,18,93,55,30,30.20,30.15,30.09,10,10,9,15,6,21,0.00,0,,55
2012-4-23,60,45,30,21,16,10,64,34,15,30.15,29.98,29.79,10,10,10,18,7,28,0.00,0,,352
2012-4-24,59,46,35,30,23,16,70,40,25,29.78,29.71,29.66,10,10,8,13,7,18,0.00,2,,360
2012-4-25,51,40,30,41,34,28,100,73,46,29.80,29.76,29.72,10,10,9,8,2,,0.00,5,,120
2012-4-26,48,39,30,43,28,12,100,59,25,30.19,29.97,29.73,10,10,5,23,9,32,0.01,4,,359
2012-4-27,50,37,26,28,22,16,93,55,27,30.29,30.24,30.19,10,10,10,14,5,20,0.00,0,,133
2012-4-28,46,38,30,32,29,25,93,64,50,30.30,30.26,30.22,10,10,10,16,10,20,0.00,0,,82
2012-4-29,53,40,26,34,27,21,100,60,28,30.38,30.28,30.14,10,10,10,10,4,,0.00,0,,81
2012-4-30,48,45,42,43,39,28,100,77,50,30.13,29.98,29.91,10,10,5,16,8,24,0.06,8,,155